Jrt Moran — WDI3936 — position and weather

sailwx.info

Track history (hours):
 
Tides and Currents Weather Stations Pressure Air Temp Water Temp Dewpoint Dewpoint Depression Visibility Wind Speed Wind Dir Waves Ship Positions

Jrt Moran

Owner: Moran Towing Corporation, New Canaan, CT. More information available from US FCC via Universal Licensing System and Coast Guard Vessel Documentation Center.

Last reported at 2018-Jun-25 19:31 UTC. Time now 2018-Jun-25 19:29 UTC.
Position N 40°38' W 074°08'.

Length 28 m; draft 4.6 m.

Type: Tug. MMSI: 338073000.

Date/timePositionNaut miles runAvg speedWind from/ knotsBaromVisibWave heightAir tempDewpointWater temp
2018-Jun-25 19:31N 40°38' W 074°08'0 0.0
2018-Jun-25 19:00N 40°38' W 074°08'0 0.0
2018-Jun-25 18:30N 40°38' W 074°08'0 0.0
2018-Jun-25 18:00N 40°38' W 074°08'0 0.0
2018-Jun-25 17:31N 40°38' W 074°08'0 0.0
2018-Jun-25 17:01N 40°38' W 074°08'0 0.0
2018-Jun-25 16:30N 40°38' W 074°08'0 0.0
2018-Jun-25 16:00N 40°38' W 074°08'0 0.0
2018-Jun-25 15:30N 40°38' W 074°08'2 3.3
2018-Jun-25 14:59N 40°40' W 074°08'0 0.4
2018-Jun-25 14:18N 40°40' W 074°08'2 6.9
2018-Jun-25 14:00N 40°39' W 074°09'0 0.2
2018-Jun-25 13:30N 40°39' W 074°09'2 3.0
2018-Jun-25 13:00N 40°40' W 074°09'0 0.5
2018-Jun-25 12:30N 40°40' W 074°09'1 2.1
2018-Jun-25 11:54N 40°39' W 074°09'3 6.2
2018-Jun-25 11:30N 40°39' W 074°06'2 4.3
2018-Jun-25 11:00N 40°38' W 074°03'612.2
2018-Jun-25 10:31N 40°44' W 074°01'2 4.8
2018-Jun-25 10:00N 40°46' W 073°60'0 0.4
2018-Jun-25 09:30N 40°46' W 074°00'1 2.8
2018-Jun-25 09:01N 40°45' W 074°01'3 6.6
2018-Jun-25 08:30N 40°41' W 074°02'4 8.3
2018-Jun-25 08:00N 40°39' W 074°06'1 2.6
2018-Jun-25 07:29N 40°38' W 074°08'0 0.0
2018-Jun-25 06:59N 40°38' W 074°08'0 0.0
2018-Jun-25 06:23N 40°38' W 074°08'0 0.0
2018-Jun-25 05:59N 40°38' W 074°08'0 0.0
2018-Jun-25 05:29N 40°38' W 074°08'0 0.0
2018-Jun-25 04:56N 40°38' W 074°08'0 0.0
2018-Jun-25 04:11N 40°38' W 074°08'0 0.0
2018-Jun-25 03:59N 40°38' W 074°08'0 0.0
2018-Jun-25 03:20N 40°38' W 074°08'0 0.0
2018-Jun-25 02:59N 40°38' W 074°08'2 4.2
2018-Jun-25 02:31N 40°40' W 074°08'1 1.8
2018-Jun-25 02:01N 40°41' W 074°09'0 0.2
2018-Jun-25 01:30N 40°41' W 074°09'0 0.0
2018-Jun-25 01:00N 40°41' W 074°09'0 0.0
2018-Jun-25 00:30N 40°41' W 074°09'3 6.4
2018-Jun-25 00:00N 40°39' W 074°06'2 3.2
2018-Jun-24 23:30N 40°40' W 074°04'1 1.2
2018-Jun-24 23:00N 40°40' W 074°05'3 5.1
2018-Jun-24 22:29N 40°39' W 074°07'0 0.5
2018-Jun-24 21:59N 40°38' W 074°08'0 0.0
2018-Jun-24 21:31N 40°38' W 074°08'0 0.0
2018-Jun-24 21:00N 40°38' W 074°08'0 0.0
2018-Jun-24 20:30N 40°38' W 074°08'0 0.0
2018-Jun-24 20:00N 40°38' W 074°08'0 0.0
2018-Jun-24 19:30N 40°38' W 074°08'0 0.0
2018-Jun-24 19:01N 40°38' W 074°08'0 0.0
2018-Jun-24 18:31N 40°38' W 074°08'0 0.0
2018-Jun-24 17:33N 40°38' W 074°08'0 0.0
2018-Jun-24 17:31N 40°38' W 074°08'0 0.0
2018-Jun-24 16:58N 40°38' W 074°08'0 0.6
2018-Jun-24 16:30N 40°39' W 074°08'1 0.8
2018-Jun-24 14:39N 40°39' W 074°10'1 5.5
2018-Jun-24 14:28N 40°39' W 074°09'1 1.4
2018-Jun-24 13:58N 40°38' W 074°08'0 0.0
2018-Jun-24 13:28N 40°38' W 074°08'0 0.0
2018-Jun-24 12:58N 40°38' W 074°08'0 0.0
2018-Jun-24 12:28N 40°38' W 074°08'0 0.0
2018-Jun-24 11:58N 40°38' W 074°08'0 0.0
2018-Jun-24 11:28N 40°38' W 074°08'0 0.0
2018-Jun-24 10:58N 40°38' W 074°08'0 0.0
2018-Jun-24 10:28N 40°38' W 074°08'0 0.0
2018-Jun-24 09:58N 40°38' W 074°08'0 0.0
2018-Jun-24 09:28N 40°38' W 074°08'0 0.0
2018-Jun-24 08:58N 40°38' W 074°08'0 0.0
2018-Jun-24 08:28N 40°38' W 074°08'0 0.0
2018-Jun-24 07:58N 40°38' W 074°08'0 0.0
2018-Jun-24 07:28N 40°38' W 074°08'0 0.0
2018-Jun-24 06:55N 40°38' W 074°08'0 0.0
2018-Jun-24 06:28N 40°38' W 074°08'0 0.0
2018-Jun-24 05:58N 40°38' W 074°08'0 0.0
2018-Jun-24 05:28N 40°38' W 074°08'0 0.0
2018-Jun-24 04:58N 40°38' W 074°08'0 0.0
2018-Jun-24 04:28N 40°38' W 074°08'2 4.6
2018-Jun-24 04:00N 40°39' W 074°05'2 3.5
2018-Jun-24 03:21N 40°39' W 074°08'1 2.7
2018-Jun-24 03:00N 40°39' W 074°09'1 2.6
2018-Jun-24 02:30N 40°41' W 074°08'0 0.3
2018-Jun-24 01:58N 40°41' W 074°09'3 4.6
2018-Jun-24 01:22N 40°39' W 074°06'2 6.8
2018-Jun-24 01:00N 40°39' W 074°09'2 4.2
2018-Jun-24 00:30N 40°41' W 074°08'1 1.5
2018-Jun-24 00:00N 40°41' W 074°09'1 1.2
2018-Jun-23 23:30N 40°40' W 074°08'0 0.0
2018-Jun-23 23:00N 40°40' W 074°08'0 0.0
2018-Jun-23 22:31N 40°40' W 074°08'0 0.0
2018-Jun-23 22:00N 40°40' W 074°08'1 2.3
2018-Jun-23 21:30N 40°39' W 074°09'1 0.9
2018-Jun-23 20:57N 40°40' W 074°09'1 2.3
2018-Jun-23 20:30N 40°39' W 074°09'2 4.5
2018-Jun-23 20:00N 40°39' W 074°06'3 6.9
2018-Jun-23 19:30N 40°37' W 074°03'2 4.9
2018-Jun-23 19:01N 40°39' W 074°04'3 2.7
2018-Jun-23 17:57N 40°38' W 074°08'0 0.0
2018-Jun-23 14:06N 40°38' W 074°08'0 0.0
2018-Jun-23 13:52N 40°38' W 074°08'2 5.0
2018-Jun-23 13:31N 40°39' W 074°10'2 3.1
2018-Jun-23 13:00N 40°40' W 074°09'0 0.3
2018-Jun-23 12:30N 40°40' W 074°09'0 0.1
2018-Jun-23 11:54N 40°40' W 074°09'0 0.1
2018-Jun-23 11:30N 40°40' W 074°09'1 2.6
2018-Jun-23 11:01N 40°41' W 074°09'0 0.0
2018-Jun-23 10:30N 40°41' W 074°09'0 0.1
2018-Jun-23 10:01N 40°41' W 074°09'2 4.6
2018-Jun-23 09:29N 40°39' W 074°09'1 1.3
2018-Jun-23 08:59N 40°38' W 074°08'0 0.0
2018-Jun-23 08:29N 40°38' W 074°08'0 0.0
2018-Jun-23 07:59N 40°38' W 074°08'0 0.0
2018-Jun-23 07:29N 40°38' W 074°08'0 0.0
2018-Jun-23 06:59N 40°38' W 074°08'0 0.0
2018-Jun-23 06:29N 40°38' W 074°08'0 0.0
2018-Jun-23 05:59N 40°38' W 074°08'0 0.0
2018-Jun-23 05:29N 40°38' W 074°08'4 7.6
2018-Jun-23 05:00N 40°40' W 074°03'1 2.7
2018-Jun-23 04:30N 40°40' W 074°05'0 0.1
2018-Jun-23 04:00N 40°40' W 074°05'3 5.1
2018-Jun-23 03:30N 40°39' W 074°07'0 0.3
2018-Jun-23 01:53N 40°38' W 074°08'3 7.0
2018-Jun-23 01:30N 40°41' W 074°09'0 0.1
2018-Jun-23 01:01N 40°41' W 074°09'2 4.0
2018-Jun-23 00:24N 40°38' W 074°09'3 5.8
2018-Jun-22 23:58N 40°39' W 074°05'3 7.0
2018-Jun-22 23:30N 40°36' W 074°03'4 7.9
2018-Jun-22 23:00N 40°40' W 074°04'1 1.2
2018-Jun-22 22:30N 40°40' W 074°05'0 0.0
2018-Jun-22 22:00N 40°40' W 074°05'0 0.0
2018-Jun-22 21:30N 40°40' W 074°05'2 3.1
2018-Jun-22 21:00N 40°39' W 074°06'1 2.8
2018-Jun-22 20:30N 40°38' W 074°08'0 0.0
2018-Jun-22 19:54N 40°38' W 074°08'0 0.0
2018-Jun-22 19:24N 40°38' W 074°08'0 0.0
2018-Jun-22 19:00N 40°38' W 074°08'0 0.0
2018-Jun-22 18:30N 40°38' W 074°08'0 0.0
2018-Jun-22 18:00N 40°38' W 074°08'0 0.0
2018-Jun-22 17:30N 40°38' W 074°08'0 0.0
2018-Jun-22 16:48N 40°38' W 074°08'0 0.0
2018-Jun-22 16:30N 40°38' W 074°08'0 0.0
2018-Jun-22 16:00N 40°38' W 074°08'0 0.8
2018-Jun-22 15:30N 40°39' W 074°08'2 4.7
2018-Jun-22 15:01N 40°41' W 074°09'2 3.6
2018-Jun-22 14:21N 40°38' W 074°09'2 5.7
2018-Jun-22 14:00N 40°39' W 074°06'3 5.4
2018-Jun-22 13:31N 40°37' W 074°03'2 4.2
2018-Jun-22 13:00N 40°39' W 074°05'2 2.2
2018-Jun-22 11:58N 40°38' W 074°08'0 0.0
2018-Jun-22 11:22N 40°38' W 074°08'3 0.9
2018-Jun-22 07:29N 40°38' W 074°12'3 4.8
2018-Jun-22 06:56N 40°38' W 074°09'1 1.6
2018-Jun-22 06:28N 40°38' W 074°08'0 0.0
2018-Jun-22 05:59N 40°38' W 074°08'0 0.0
2018-Jun-22 05:28N 40°38' W 074°08'0 0.0
2018-Jun-22 04:58N 40°38' W 074°08'0 0.0
2018-Jun-22 04:28N 40°38' W 074°08'0 0.0
2018-Jun-22 03:58N 40°38' W 074°08'0 0.0
2018-Jun-22 03:25N 40°38' W 074°08'0 0.0
2018-Jun-22 02:58N 40°38' W 074°08'0 0.0
2018-Jun-22 02:28N 40°38' W 074°08'1 2.2
2018-Jun-22 02:00N 40°39' W 074°09'2 3.1
2018-Jun-22 01:30N 40°41' W 074°08'1 1.1
2018-Jun-22 01:00N 40°41' W 074°09'2 3.4
2018-Jun-22 00:30N 40°39' W 074°09'1 2.1
2018-Jun-21 23:58N 40°38' W 074°08'0 0.0
2018-Jun-21 23:25N 40°38' W 074°08'0 0.0
2018-Jun-21 22:58N 40°38' W 074°08'0 0.0
2018-Jun-21 22:28N 40°38' W 074°08'0 0.0
2018-Jun-21 21:58N 40°38' W 074°08'0 0.0
2018-Jun-21 21:28N 40°38' W 074°08'0 0.0
2018-Jun-21 20:58N 40°38' W 074°08'0 0.0
2018-Jun-21 20:28N 40°38' W 074°08'0 0.0
2018-Jun-21 19:58N 40°38' W 074°08'0 0.0
2018-Jun-21 19:28N 40°38' W 074°08'0 0.0
2018-Jun-21 18:58N 40°38' W 074°08'0 0.0
2018-Jun-21 18:28N 40°38' W 074°08'0 0.0
2018-Jun-21 17:58N 40°38' W 074°08'0 0.0
2018-Jun-21 17:28N 40°38' W 074°08'0 0.0
2018-Jun-21 16:58N 40°38' W 074°08'1 2.2
2018-Jun-21 16:30N 40°39' W 074°09'3 3.1
2018-Jun-21 15:39N 40°42' W 074°08'1 5.0
2018-Jun-21 15:25N 40°41' W 074°08'2 4.8
2018-Jun-21 15:00N 40°39' W 074°08'4 7.5
2018-Jun-21 14:30N 40°38' W 074°03'3 5.7
2018-Jun-21 13:56N 40°39' W 074°07'1 2.9
2018-Jun-21 13:30N 40°39' W 074°09'1 2.7
2018-Jun-21 13:00N 40°40' W 074°08'1 1.4
2018-Jun-21 12:30N 40°41' W 074°09'0 0.1
2018-Jun-21 12:00N 40°41' W 074°09'3 4.5
2018-Jun-21 11:19N 40°39' W 074°06'2 5.0
2018-Jun-21 11:00N 40°40' W 074°05'0 0.3
2018-Jun-21 10:22N 40°40' W 074°05'0 0.8
2018-Jun-21 10:00N 40°40' W 074°05'3 5.2
2018-Jun-21 09:30N 40°38' W 074°03'1 1.6
2018-Jun-21 09:00N 40°38' W 074°04'4 7.6
2018-Jun-21 08:30N 40°40' W 074°08'0 0.9
2018-Jun-21 08:00N 40°41' W 074°09'0 0.8
2018-Jun-21 07:30N 40°40' W 074°08'2 4.0
2018-Jun-21 07:01N 40°39' W 074°09'3 4.8
2018-Jun-21 06:29N 40°39' W 074°06'3 4.6
2018-Jun-21 05:53N 40°37' W 074°03'1 1.9
2018-Jun-21 05:30N 40°36' W 074°03'4 7.2
2018-Jun-21 05:00N 40°39' W 074°06'1 0.8
2018-Jun-21 03:06N 40°38' W 074°08'0 0.0
2018-Jun-21 01:00N 40°38' W 074°08'0 0.0
2018-Jun-20 22:21N 40°38' W 074°08'0 0.0
2018-Jun-20 21:51N 40°38' W 074°08'0 0.2
2018-Jun-20 21:30N 40°38' W 074°08'3 1.5
2018-Jun-20 19:27N 40°38' W 074°12'2 3.8
2018-Jun-20 18:48N 40°39' W 074°09'2 4.5
2018-Jun-20 18:17N 40°39' W 074°06'1 4.6
2018-Jun-20 18:00N 40°39' W 074°04'3 5.9
2018-Jun-20 17:28N 40°36' W 074°02'0 0.3
2018-Jun-20 17:00N 40°36' W 074°02'2 3.0
2018-Jun-20 16:30N 40°37' W 074°03'4 5.8
2018-Jun-20 15:49N 40°38' W 074°08'0 0.0
2018-Jun-20 15:29N 40°38' W 074°08'0 0.0
2018-Jun-20 15:00N 40°38' W 074°08'0 0.0
2018-Jun-20 14:29N 40°38' W 074°08'0 0.0
2018-Jun-20 13:59N 40°38' W 074°08'0 0.0
2018-Jun-20 13:27N 40°38' W 074°08'0 0.0
2018-Jun-20 11:53N 40°38' W 074°08'1 2.6
2018-Jun-20 11:30N 40°39' W 074°09'3 5.4
2018-Jun-20 10:58N 40°42' W 074°08'1 2.2
2018-Jun-20 10:30N 40°41' W 074°08'2 4.0
2018-Jun-20 10:00N 40°39' W 074°07'0 0.7
2018-Jun-20 09:20N 40°38' W 074°08'0 0.0
2018-Jun-20 08:56N 40°38' W 074°08'0 0.0
2018-Jun-20 07:01N 40°38' W 074°08'0 1.2
2018-Jun-20 07:00N 40°39' W 074°08'3 6.4
2018-Jun-20 06:30N 40°42' W 074°08'0 0.0
2018-Jun-20 06:00N 40°42' W 074°08'3 0.7
2018-Jun-20 01:10N 40°38' W 074°08'1 6.9
2018-Jun-20 00:59N 40°39' W 074°09'1 3.0
2018-Jun-20 00:30N 40°41' W 074°09'1 1.8
2018-Jun-20 00:00N 40°40' W 074°08'3 3.1
2018-Jun-19 22:59N 40°39' W 074°04'3 6.7
2018-Jun-19 22:30N 40°36' W 074°03'4 7.9
2018-Jun-19 22:00N 40°39' W 074°07'2 3.8
2018-Jun-19 21:30N 40°40' W 074°09'0 0.4
2018-Jun-19 21:00N 40°40' W 074°09'2 3.4
2018-Jun-19 20:30N 40°39' W 074°07'3 5.9
2018-Jun-19 19:58N 40°37' W 074°03'2 4.1
2018-Jun-19 19:30N 40°39' W 074°04'3 7.0
2018-Jun-19 19:01N 40°39' W 074°09'2 3.4
2018-Jun-19 18:28N 40°40' W 074°08'1 1.5
2018-Jun-19 18:00N 40°41' W 074°09'1 2.1
2018-Jun-19 17:30N 40°40' W 074°09'1 2.9
2018-Jun-19 17:00N 40°38' W 074°08'0 1.0
2018-Jun-19 16:30N 40°39' W 074°08'2 2.1
2018-Jun-19 15:42N 40°40' W 074°08'0 0.2
2018-Jun-19 15:29N 40°40' W 074°08'2 3.0
2018-Jun-19 14:55N 40°39' W 074°09'1 0.8
2018-Jun-19 14:03N 40°38' W 074°08'0 0.0
2018-Jun-19 11:56N 40°39' W 074°08'0 0.0
2018-Jun-19 00:01N 40°38' W 074°08'0 0.7
2018-Jun-18 23:59N 40°39' W 074°08'0 0.0
2018-Jun-18 21:42N 40°38' W 074°08'2 7.7
2018-Jun-18 21:29N 40°40' W 074°08'1 1.1
2018-Jun-18 21:01N 40°41' W 074°08'2 4.2
2018-Jun-18 20:30N 40°39' W 074°09'2 4.8
2018-Jun-18 19:59N 40°39' W 074°06'3 4.9
2018-Jun-18 19:28N 40°37' W 074°03'3 6.3
2018-Jun-18 19:00N 40°39' W 074°06'1 2.3
2018-Jun-18 18:30N 40°38' W 074°08'0 0.0
2018-Jun-18 18:00N 40°38' W 074°08'0 0.0
2018-Jun-18 17:30N 40°38' W 074°08'0 0.0
2018-Jun-18 17:00N 40°38' W 074°08'0 0.0
2018-Jun-18 16:30N 40°38' W 074°08'0 0.0
2018-Jun-18 16:00N 40°38' W 074°08'0 0.0
2018-Jun-18 15:30N 40°38' W 074°08'2 1.9
2018-Jun-18 14:40N 40°40' W 074°09'0 1.7
2018-Jun-18 14:30N 40°40' W 074°09'2 2.9
2018-Jun-18 13:55N 40°39' W 074°07'3 6.5
2018-Jun-18 13:30N 40°38' W 074°03'2 4.6
2018-Jun-18 13:01N 40°39' W 074°06'1 0.3
2018-Jun-18 08:49N 40°38' W 074°08'0 0.0
2018-Jun-18 08:24N 40°38' W 074°08'2 3.9
2018-Jun-18 08:00N 40°40' W 074°09'0 0.2
2018-Jun-18 07:28N 40°40' W 074°09'1 2.8
2018-Jun-18 06:59N 40°39' W 074°08'1 2.6
2018-Jun-18 06:30N 40°39' W 074°06'3 5.5
2018-Jun-18 06:00N 40°41' W 074°09'0 0.0
2018-Jun-18 05:30N 40°41' W 074°09'1 1.6
2018-Jun-18 05:00N 40°40' W 074°08'1 2.7
2018-Jun-18 04:30N 40°39' W 074°08'2 4.6
2018-Jun-18 04:00N 40°39' W 074°05'3 5.9
2018-Jun-18 03:29N 40°37' W 074°03'4 7.5
2018-Jun-18 03:00N 40°39' W 074°07'1 2.0
2018-Jun-18 02:30N 40°38' W 074°08'0 0.0
2018-Jun-18 02:00N 40°39' W 074°08'0 0.0
2018-Jun-18 01:30N 40°38' W 074°08'0 0.0
2018-Jun-18 01:00N 40°38' W 074°08'0 0.0
2018-Jun-18 00:30N 40°39' W 074°08'0 0.0
2018-Jun-18 00:00N 40°39' W 074°08'0 0.0
2018-Jun-17 23:30N 40°39' W 074°08'0 0.0
2018-Jun-17 23:00N 40°39' W 074°08'1 2.1
2018-Jun-17 22:30N 40°39' W 074°09'1 1.6
2018-Jun-17 22:01N 40°40' W 074°09'2 0.3
2018-Jun-17 16:37N 40°39' W 074°07'1 6.3
2018-Jun-17 16:30N 40°39' W 074°08'2 3.7
2018-Jun-17 15:59N 40°40' W 074°08'1 1.2
2018-Jun-17 15:26N 40°41' W 074°09'0 0.9
2018-Jun-17 14:58N 40°41' W 074°08'2 0.2
2018-Jun-17 02:50N 40°38' W 074°08'1 3.6
2018-Jun-17 02:25N 40°40' W 074°09'1 1.9
2018-Jun-17 02:00N 40°41' W 074°08'0 0.4
2018-Jun-17 01:30N 40°41' W 074°09'0 0.4
2018-Jun-17 01:00N 40°41' W 074°08'2 0.4
2018-Jun-16 18:48N 40°39' W 074°08'1 2.8
2018-Jun-16 18:19N 40°40' W 074°09'1 2.3
2018-Jun-16 17:57N 40°40' W 074°08'1 1.2
2018-Jun-16 17:24N 40°41' W 074°09'0 0.0
2018-Jun-16 17:00N 40°41' W 074°09'2 3.8
2018-Jun-16 16:23N 40°39' W 074°09'1 2.0
2018-Jun-16 16:00N 40°38' W 074°08'0 0.0
2018-Jun-16 15:30N 40°39' W 074°08'1 2.1
2018-Jun-16 15:00N 40°39' W 074°09'2 3.3
2018-Jun-16 14:29N 40°41' W 074°09'1 1.2
2018-Jun-16 13:57N 40°41' W 074°09'0 0.1
2018-Jun-16 13:30N 40°41' W 074°09'0 0.0
2018-Jun-16 13:00N 40°41' W 074°09'3 4.6
2018-Jun-16 12:27N 40°39' W 074°09'3 7.9
2018-Jun-16 12:00N 40°40' W 074°05'0 0.4
2018-Jun-16 11:30N 40°40' W 074°05'2 3.6
2018-Jun-16 11:00N 40°39' W 074°03'3 5.3
2018-Jun-16 10:31N 40°36' W 074°03'2 3.7
2018-Jun-16 10:00N 40°38' W 074°04'0 0.0
2018-Jun-16 09:30N 40°38' W 074°04'0 0.0
2018-Jun-16 09:00N 40°38' W 074°04'2 3.4
2018-Jun-16 08:30N 40°39' W 074°05'0 0.1
2018-Jun-16 08:00N 40°39' W 074°05'0 0.9
2018-Jun-16 07:30N 40°39' W 074°05'2 3.1
2018-Jun-16 07:00N 40°38' W 074°03'2 3.8
2018-Jun-16 06:30N 40°39' W 074°05'1 0.8
2018-Jun-16 05:38N 40°39' W 074°06'1 1.5
2018-Jun-16 04:46N 40°38' W 074°08'0 1.0
2018-Jun-16 04:28N 40°39' W 074°07'1 3.2
2018-Jun-16 04:00N 40°40' W 074°08'1 1.7
2018-Jun-16 03:30N 40°41' W 074°09'0 0.7
2018-Jun-16 03:00N 40°41' W 074°09'0 0.3
2018-Jun-16 02:23N 40°41' W 074°09'0 0.0
2018-Jun-16 01:56N 40°41' W 074°09'3 6.1
2018-Jun-16 01:30N 40°39' W 074°09'1 1.3
2018-Jun-16 00:56N 40°38' W 074°08'0 0.0
2018-Jun-16 00:27N 40°38' W 074°08'0 0.0
2018-Jun-15 23:59N 40°38' W 074°08'0 0.0
2018-Jun-15 23:00N 40°39' W 074°08'1 1.6
2018-Jun-15 22:18N 40°39' W 074°09'1 1.5
2018-Jun-15 21:52N 40°40' W 074°09'0 0.0
2018-Jun-15 21:06N 40°40' W 074°09'0 0.1
2018-Jun-15 20:59N 40°40' W 074°09'  
Track history (hours):
 
Tides and Currents Weather Stations Pressure Air Temp Water Temp Dewpoint Dewpoint Depression Visibility Wind Speed Wind Dir Waves Ship Positions

Jrt Moran

Owner: Moran Towing Corporation, New Canaan, CT. More information available from US FCC via Universal Licensing System and Coast Guard Vessel Documentation Center.

Last reported at 2018-Jun-25 19:31 UTC. Time now 2018-Jun-25 19:29 UTC.
Position N 40°38' W 074°08'.

Length 28 m; draft 4.6 m.

Type: Tug. MMSI: 338073000.

Date/timePositionNaut miles runAvg speedWind from/ knotsBaromVisibWave heightAir tempDewpointWater temp
2018-Jun-25 19:31N 40°38' W 074°08'0 0.0
2018-Jun-25 19:00N 40°38' W 074°08'0 0.0
2018-Jun-25 18:30N 40°38' W 074°08'0 0.0
2018-Jun-25 18:00N 40°38' W 074°08'0 0.0
2018-Jun-25 17:31N 40°38' W 074°08'0 0.0
2018-Jun-25 17:01N 40°38' W 074°08'0 0.0
2018-Jun-25 16:30N 40°38' W 074°08'0 0.0
2018-Jun-25 16:00N 40°38' W 074°08'0 0.0
2018-Jun-25 15:30N 40°38' W 074°08'2 3.3
2018-Jun-25 14:59N 40°40' W 074°08'0 0.4
2018-Jun-25 14:18N 40°40' W 074°08'2 6.9
2018-Jun-25 14:00N 40°39' W 074°09'0 0.2
2018-Jun-25 13:30N 40°39' W 074°09'2 3.0
2018-Jun-25 13:00N 40°40' W 074°09'0 0.5
2018-Jun-25 12:30N 40°40' W 074°09'1 2.1
2018-Jun-25 11:54N 40°39' W 074°09'3 6.2
2018-Jun-25 11:30N 40°39' W 074°06'2 4.3
2018-Jun-25 11:00N 40°38' W 074°03'612.2
2018-Jun-25 10:31N 40°44' W 074°01'2 4.8
2018-Jun-25 10:00N 40°46' W 073°60'0 0.4
2018-Jun-25 09:30N 40°46' W 074°00'1 2.8
2018-Jun-25 09:01N 40°45' W 074°01'3 6.6
2018-Jun-25 08:30N 40°41' W 074°02'4 8.3
2018-Jun-25 08:00N 40°39' W 074°06'1 2.6
2018-Jun-25 07:29N 40°38' W 074°08'0 0.0
2018-Jun-25 06:59N 40°38' W 074°08'0 0.0
2018-Jun-25 06:23N 40°38' W 074°08'0 0.0
2018-Jun-25 05:59N 40°38' W 074°08'0 0.0
2018-Jun-25 05:29N 40°38' W 074°08'0 0.0
2018-Jun-25 04:56N 40°38' W 074°08'0 0.0
2018-Jun-25 04:11N 40°38' W 074°08'0 0.0
2018-Jun-25 03:59N 40°38' W 074°08'0 0.0
2018-Jun-25 03:20N 40°38' W 074°08'0 0.0
2018-Jun-25 02:59N 40°38' W 074°08'2 4.2
2018-Jun-25 02:31N 40°40' W 074°08'1 1.8
2018-Jun-25 02:01N 40°41' W 074°09'0 0.2
2018-Jun-25 01:30N 40°41' W 074°09'0 0.0
2018-Jun-25 01:00N 40°41' W 074°09'0 0.0
2018-Jun-25 00:30N 40°41' W 074°09'3 6.4
2018-Jun-25 00:00N 40°39' W 074°06'2 3.2
2018-Jun-24 23:30N 40°40' W 074°04'1 1.2
2018-Jun-24 23:00N 40°40' W 074°05'3 5.1
2018-Jun-24 22:29N 40°39' W 074°07'0 0.5
2018-Jun-24 21:59N 40°38' W 074°08'0 0.0
2018-Jun-24 21:31N 40°38' W 074°08'0 0.0
2018-Jun-24 21:00N 40°38' W 074°08'0 0.0
2018-Jun-24 20:30N 40°38' W 074°08'0 0.0
2018-Jun-24 20:00N 40°38' W 074°08'0 0.0
2018-Jun-24 19:30N 40°38' W 074°08'0 0.0
2018-Jun-24 19:01N 40°38' W 074°08'0 0.0
2018-Jun-24 18:31N 40°38' W 074°08'0 0.0
2018-Jun-24 17:33N 40°38' W 074°08'0 0.0
2018-Jun-24 17:31N 40°38' W 074°08'0 0.0
2018-Jun-24 16:58N 40°38' W 074°08'0 0.6
2018-Jun-24 16:30N 40°39' W 074°08'1 0.8
2018-Jun-24 14:39N 40°39' W 074°10'1 5.5
2018-Jun-24 14:28N 40°39' W 074°09'1 1.4
2018-Jun-24 13:58N 40°38' W 074°08'0 0.0
2018-Jun-24 13:28N 40°38' W 074°08'0 0.0
2018-Jun-24 12:58N 40°38' W 074°08'0 0.0
2018-Jun-24 12:28N 40°38' W 074°08'0 0.0
2018-Jun-24 11:58N 40°38' W 074°08'0 0.0
2018-Jun-24 11:28N 40°38' W 074°08'0 0.0
2018-Jun-24 10:58N 40°38' W 074°08'0 0.0
2018-Jun-24 10:28N 40°38' W 074°08'0 0.0
2018-Jun-24 09:58N 40°38' W 074°08'0 0.0
2018-Jun-24 09:28N 40°38' W 074°08'0 0.0
2018-Jun-24 08:58N 40°38' W 074°08'0 0.0
2018-Jun-24 08:28N 40°38' W 074°08'0 0.0
2018-Jun-24 07:58N 40°38' W 074°08'0 0.0
2018-Jun-24 07:28N 40°38' W 074°08'0 0.0
2018-Jun-24 06:55N 40°38' W 074°08'0 0.0
2018-Jun-24 06:28N 40°38' W 074°08'0 0.0
2018-Jun-24 05:58N 40°38' W 074°08'0 0.0
2018-Jun-24 05:28N 40°38' W 074°08'0 0.0
2018-Jun-24 04:58N 40°38' W 074°08'0 0.0
2018-Jun-24 04:28N 40°38' W 074°08'2 4.6
2018-Jun-24 04:00N 40°39' W 074°05'2 3.5
2018-Jun-24 03:21N 40°39' W 074°08'1 2.7
2018-Jun-24 03:00N 40°39' W 074°09'1 2.6
2018-Jun-24 02:30N 40°41' W 074°08'0 0.3
2018-Jun-24 01:58N 40°41' W 074°09'3 4.6
2018-Jun-24 01:22N 40°39' W 074°06'2 6.8
2018-Jun-24 01:00N 40°39' W 074°09'2 4.2
2018-Jun-24 00:30N 40°41' W 074°08'1 1.5
2018-Jun-24 00:00N 40°41' W 074°09'1 1.2
2018-Jun-23 23:30N 40°40' W 074°08'0 0.0
2018-Jun-23 23:00N 40°40' W 074°08'0 0.0
2018-Jun-23 22:31N 40°40' W 074°08'0 0.0
2018-Jun-23 22:00N 40°40' W 074°08'1 2.3
2018-Jun-23 21:30N 40°39' W 074°09'1 0.9
2018-Jun-23 20:57N 40°40' W 074°09'1 2.3
2018-Jun-23 20:30N 40°39' W 074°09'2 4.5
2018-Jun-23 20:00N 40°39' W 074°06'3 6.9
2018-Jun-23 19:30N 40°37' W 074°03'2 4.9
2018-Jun-23 19:01N 40°39' W 074°04'3 2.7
2018-Jun-23 17:57N 40°38' W 074°08'0 0.0
2018-Jun-23 14:06N 40°38' W 074°08'0 0.0
2018-Jun-23 13:52N 40°38' W 074°08'2 5.0
2018-Jun-23 13:31N 40°39' W 074°10'2 3.1
2018-Jun-23 13:00N 40°40' W 074°09'0 0.3
2018-Jun-23 12:30N 40°40' W 074°09'0 0.1
2018-Jun-23 11:54N 40°40' W 074°09'0 0.1
2018-Jun-23 11:30N 40°40' W 074°09'1 2.6
2018-Jun-23 11:01N 40°41' W 074°09'0 0.0
2018-Jun-23 10:30N 40°41' W 074°09'0 0.1
2018-Jun-23 10:01N 40°41' W 074°09'2 4.6
2018-Jun-23 09:29N 40°39' W 074°09'1 1.3
2018-Jun-23 08:59N 40°38' W 074°08'0 0.0
2018-Jun-23 08:29N 40°38' W 074°08'0 0.0
2018-Jun-23 07:59N 40°38' W 074°08'0 0.0
2018-Jun-23 07:29N 40°38' W 074°08'0 0.0
2018-Jun-23 06:59N 40°38' W 074°08'0 0.0
2018-Jun-23 06:29N 40°38' W 074°08'0 0.0
2018-Jun-23 05:59N 40°38' W 074°08'0 0.0
2018-Jun-23 05:29N 40°38' W 074°08'4 7.6
2018-Jun-23 05:00N 40°40' W 074°03'1 2.7
2018-Jun-23 04:30N 40°40' W 074°05'0 0.1
2018-Jun-23 04:00N 40°40' W 074°05'3 5.1
2018-Jun-23 03:30N 40°39' W 074°07'0 0.3
2018-Jun-23 01:53N 40°38' W 074°08'3 7.0
2018-Jun-23 01:30N 40°41' W 074°09'0 0.1
2018-Jun-23 01:01N 40°41' W 074°09'2 4.0
2018-Jun-23 00:24N 40°38' W 074°09'3 5.8
2018-Jun-22 23:58N 40°39' W 074°05'3 7.0
2018-Jun-22 23:30N 40°36' W 074°03'4 7.9
2018-Jun-22 23:00N 40°40' W 074°04'1 1.2
2018-Jun-22 22:30N 40°40' W 074°05'0 0.0
2018-Jun-22 22:00N 40°40' W 074°05'0 0.0
2018-Jun-22 21:30N 40°40' W 074°05'2 3.1
2018-Jun-22 21:00N 40°39' W 074°06'1 2.8
2018-Jun-22 20:30N 40°38' W 074°08'0 0.0
2018-Jun-22 19:54N 40°38' W 074°08'0 0.0
2018-Jun-22 19:24N 40°38' W 074°08'0 0.0
2018-Jun-22 19:00N 40°38' W 074°08'0 0.0
2018-Jun-22 18:30N 40°38' W 074°08'0 0.0
2018-Jun-22 18:00N 40°38' W 074°08'0 0.0
2018-Jun-22 17:30N 40°38' W 074°08'0 0.0
2018-Jun-22 16:48N 40°38' W 074°08'0 0.0
2018-Jun-22 16:30N 40°38' W 074°08'0 0.0
2018-Jun-22 16:00N 40°38' W 074°08'0 0.8
2018-Jun-22 15:30N 40°39' W 074°08'2 4.7
2018-Jun-22 15:01N 40°41' W 074°09'2 3.6
2018-Jun-22 14:21N 40°38' W 074°09'2 5.7
2018-Jun-22 14:00N 40°39' W 074°06'3 5.4
2018-Jun-22 13:31N 40°37' W 074°03'2 4.2
2018-Jun-22 13:00N 40°39' W 074°05'2 2.2
2018-Jun-22 11:58N 40°38' W 074°08'0 0.0
2018-Jun-22 11:22N 40°38' W 074°08'3 0.9
2018-Jun-22 07:29N 40°38' W 074°12'3 4.8
2018-Jun-22 06:56N 40°38' W 074°09'1 1.6
2018-Jun-22 06:28N 40°38' W 074°08'0 0.0
2018-Jun-22 05:59N 40°38' W 074°08'0 0.0
2018-Jun-22 05:28N 40°38' W 074°08'0 0.0
2018-Jun-22 04:58N 40°38' W 074°08'0 0.0
2018-Jun-22 04:28N 40°38' W 074°08'0 0.0
2018-Jun-22 03:58N 40°38' W 074°08'0 0.0
2018-Jun-22 03:25N 40°38' W 074°08'0 0.0
2018-Jun-22 02:58N 40°38' W 074°08'0 0.0
2018-Jun-22 02:28N 40°38' W 074°08'1 2.2
2018-Jun-22 02:00N 40°39' W 074°09'2 3.1
2018-Jun-22 01:30N 40°41' W 074°08'1 1.1
2018-Jun-22 01:00N 40°41' W 074°09'2 3.4
2018-Jun-22 00:30N 40°39' W 074°09'1 2.1
2018-Jun-21 23:58N 40°38' W 074°08'0 0.0
2018-Jun-21 23:25N 40°38' W 074°08'0 0.0
2018-Jun-21 22:58N 40°38' W 074°08'0 0.0
2018-Jun-21 22:28N 40°38' W 074°08'0 0.0
2018-Jun-21 21:58N 40°38' W 074°08'0 0.0
2018-Jun-21 21:28N 40°38' W 074°08'0 0.0
2018-Jun-21 20:58N 40°38' W 074°08'0 0.0
2018-Jun-21 20:28N 40°38' W 074°08'0 0.0
2018-Jun-21 19:58N 40°38' W 074°08'0 0.0
2018-Jun-21 19:28N 40°38' W 074°08'0 0.0
2018-Jun-21 18:58N 40°38' W 074°08'0 0.0
2018-Jun-21 18:28N 40°38' W 074°08'0 0.0
2018-Jun-21 17:58N 40°38' W 074°08'0 0.0
2018-Jun-21 17:28N 40°38' W 074°08'0 0.0
2018-Jun-21 16:58N 40°38' W 074°08'1 2.2
2018-Jun-21 16:30N 40°39' W 074°09'3 3.1
2018-Jun-21 15:39N 40°42' W 074°08'1 5.0
2018-Jun-21 15:25N 40°41' W 074°08'2 4.8
2018-Jun-21 15:00N 40°39' W 074°08'4 7.5
2018-Jun-21 14:30N 40°38' W 074°03'3 5.7
2018-Jun-21 13:56N 40°39' W 074°07'1 2.9
2018-Jun-21 13:30N 40°39' W 074°09'1 2.7
2018-Jun-21 13:00N 40°40' W 074°08'1 1.4
2018-Jun-21 12:30N 40°41' W 074°09'0 0.1
2018-Jun-21 12:00N 40°41' W 074°09'3 4.5
2018-Jun-21 11:19N 40°39' W 074°06'2 5.0
2018-Jun-21 11:00N 40°40' W 074°05'0 0.3
2018-Jun-21 10:22N 40°40' W 074°05'0 0.8
2018-Jun-21 10:00N 40°40' W 074°05'3 5.2
2018-Jun-21 09:30N 40°38' W 074°03'1 1.6
2018-Jun-21 09:00N 40°38' W 074°04'4 7.6
2018-Jun-21 08:30N 40°40' W 074°08'0 0.9
2018-Jun-21 08:00N 40°41' W 074°09'0 0.8
2018-Jun-21 07:30N 40°40' W 074°08'2 4.0
2018-Jun-21 07:01N 40°39' W 074°09'3 4.8
2018-Jun-21 06:29N 40°39' W 074°06'3 4.6
2018-Jun-21 05:53N 40°37' W 074°03'1 1.9
2018-Jun-21 05:30N 40°36' W 074°03'4 7.2
2018-Jun-21 05:00N 40°39' W 074°06'1 0.8
2018-Jun-21 03:06N 40°38' W 074°08'0 0.0
2018-Jun-21 01:00N 40°38' W 074°08'0 0.0
2018-Jun-20 22:21N 40°38' W 074°08'0 0.0
2018-Jun-20 21:51N 40°38' W 074°08'0 0.2
2018-Jun-20 21:30N 40°38' W 074°08'3 1.5
2018-Jun-20 19:27N 40°38' W 074°12'2 3.8
2018-Jun-20 18:48N 40°39' W 074°09'2 4.5
2018-Jun-20 18:17N 40°39' W 074°06'1 4.6
2018-Jun-20 18:00N 40°39' W 074°04'3 5.9
2018-Jun-20 17:28N 40°36' W 074°02'0 0.3
2018-Jun-20 17:00N 40°36' W 074°02'2 3.0
2018-Jun-20 16:30N 40°37' W 074°03'4 5.8
2018-Jun-20 15:49N 40°38' W 074°08'0 0.0
2018-Jun-20 15:29N 40°38' W 074°08'0 0.0
2018-Jun-20 15:00N 40°38' W 074°08'0 0.0
2018-Jun-20 14:29N 40°38' W 074°08'0 0.0
2018-Jun-20 13:59N 40°38' W 074°08'0 0.0
2018-Jun-20 13:27N 40°38' W 074°08'0 0.0
2018-Jun-20 11:53N 40°38' W 074°08'1 2.6
2018-Jun-20 11:30N 40°39' W 074°09'3 5.4
2018-Jun-20 10:58N 40°42' W 074°08'1 2.2
2018-Jun-20 10:30N 40°41' W 074°08'2 4.0
2018-Jun-20 10:00N 40°39' W 074°07'0 0.7
2018-Jun-20 09:20N 40°38' W 074°08'0 0.0
2018-Jun-20 08:56N 40°38' W 074°08'0 0.0
2018-Jun-20 07:01N 40°38' W 074°08'0 1.2
2018-Jun-20 07:00N 40°39' W 074°08'3 6.4
2018-Jun-20 06:30N 40°42' W 074°08'0 0.0
2018-Jun-20 06:00N 40°42' W 074°08'3 0.7
2018-Jun-20 01:10N 40°38' W 074°08'1 6.9
2018-Jun-20 00:59N 40°39' W 074°09'1 3.0
2018-Jun-20 00:30N 40°41' W 074°09'1 1.8
2018-Jun-20 00:00N 40°40' W 074°08'3 3.1
2018-Jun-19 22:59N 40°39' W 074°04'3 6.7
2018-Jun-19 22:30N 40°36' W 074°03'4 7.9
2018-Jun-19 22:00N 40°39' W 074°07'2 3.8
2018-Jun-19 21:30N 40°40' W 074°09'0 0.4
2018-Jun-19 21:00N 40°40' W 074°09'2 3.4
2018-Jun-19 20:30N 40°39' W 074°07'3 5.9
2018-Jun-19 19:58N 40°37' W 074°03'2 4.1
2018-Jun-19 19:30N 40°39' W 074°04'3 7.0
2018-Jun-19 19:01N 40°39' W 074°09'2 3.4
2018-Jun-19 18:28N 40°40' W 074°08'1 1.5
2018-Jun-19 18:00N 40°41' W 074°09'1 2.1
2018-Jun-19 17:30N 40°40' W 074°09'1 2.9
2018-Jun-19 17:00N 40°38' W 074°08'0 1.0
2018-Jun-19 16:30N 40°39' W 074°08'2 2.1
2018-Jun-19 15:42N 40°40' W 074°08'0 0.2
2018-Jun-19 15:29N 40°40' W 074°08'2 3.0
2018-Jun-19 14:55N 40°39' W 074°09'1 0.8
2018-Jun-19 14:03N 40°38' W 074°08'0 0.0
2018-Jun-19 11:56N 40°39' W 074°08'0 0.0
2018-Jun-19 00:01N 40°38' W 074°08'0 0.7
2018-Jun-18 23:59N 40°39' W 074°08'0 0.0
2018-Jun-18 21:42N 40°38' W 074°08'2 7.7
2018-Jun-18 21:29N 40°40' W 074°08'1 1.1
2018-Jun-18 21:01N 40°41' W 074°08'2 4.2
2018-Jun-18 20:30N 40°39' W 074°09'2 4.8
2018-Jun-18 19:59N 40°39' W 074°06'3 4.9
2018-Jun-18 19:28N 40°37' W 074°03'3 6.3
2018-Jun-18 19:00N 40°39' W 074°06'1 2.3
2018-Jun-18 18:30N 40°38' W 074°08'0 0.0
2018-Jun-18 18:00N 40°38' W 074°08'0 0.0
2018-Jun-18 17:30N 40°38' W 074°08'0 0.0
2018-Jun-18 17:00N 40°38' W 074°08'0 0.0
2018-Jun-18 16:30N 40°38' W 074°08'0 0.0
2018-Jun-18 16:00N 40°38' W 074°08'0 0.0
2018-Jun-18 15:30N 40°38' W 074°08'2 1.9
2018-Jun-18 14:40N 40°40' W 074°09'0 1.7
2018-Jun-18 14:30N 40°40' W 074°09'2 2.9
2018-Jun-18 13:55N 40°39' W 074°07'3 6.5
2018-Jun-18 13:30N 40°38' W 074°03'2 4.6
2018-Jun-18 13:01N 40°39' W 074°06'1 0.3
2018-Jun-18 08:49N 40°38' W 074°08'0 0.0
2018-Jun-18 08:24N 40°38' W 074°08'2 3.9
2018-Jun-18 08:00N 40°40' W 074°09'0 0.2
2018-Jun-18 07:28N 40°40' W 074°09'1 2.8
2018-Jun-18 06:59N 40°39' W 074°08'1 2.6
2018-Jun-18 06:30N 40°39' W 074°06'3 5.5
2018-Jun-18 06:00N 40°41' W 074°09'0 0.0
2018-Jun-18 05:30N 40°41' W 074°09'1 1.6
2018-Jun-18 05:00N 40°40' W 074°08'1 2.7
2018-Jun-18 04:30N 40°39' W 074°08'2 4.6
2018-Jun-18 04:00N 40°39' W 074°05'3 5.9
2018-Jun-18 03:29N 40°37' W 074°03'4 7.5
2018-Jun-18 03:00N 40°39' W 074°07'1 2.0
2018-Jun-18 02:30N 40°38' W 074°08'0 0.0
2018-Jun-18 02:00N 40°39' W 074°08'0 0.0
2018-Jun-18 01:30N 40°38' W 074°08'0 0.0
2018-Jun-18 01:00N 40°38' W 074°08'0 0.0
2018-Jun-18 00:30N 40°39' W 074°08'0 0.0
2018-Jun-18 00:00N 40°39' W 074°08'0 0.0
2018-Jun-17 23:30N 40°39' W 074°08'0 0.0
2018-Jun-17 23:00N 40°39' W 074°08'1 2.1
2018-Jun-17 22:30N 40°39' W 074°09'1 1.6
2018-Jun-17 22:01N 40°40' W 074°09'2 0.3
2018-Jun-17 16:37N 40°39' W 074°07'1 6.3
2018-Jun-17 16:30N 40°39' W 074°08'2 3.7
2018-Jun-17 15:59N 40°40' W 074°08'1 1.2
2018-Jun-17 15:26N 40°41' W 074°09'0 0.9
2018-Jun-17 14:58N 40°41' W 074°08'2 0.2
2018-Jun-17 02:50N 40°38' W 074°08'1 3.6
2018-Jun-17 02:25N 40°40' W 074°09'1 1.9
2018-Jun-17 02:00N 40°41' W 074°08'0 0.4
2018-Jun-17 01:30N 40°41' W 074°09'0 0.4
2018-Jun-17 01:00N 40°41' W 074°08'2 0.4
2018-Jun-16 18:48N 40°39' W 074°08'1 2.8
2018-Jun-16 18:19N 40°40' W 074°09'1 2.3
2018-Jun-16 17:57N 40°40' W 074°08'1 1.2
2018-Jun-16 17:24N 40°41' W 074°09'0 0.0
2018-Jun-16 17:00N 40°41' W 074°09'2 3.8
2018-Jun-16 16:23N 40°39' W 074°09'1 2.0
2018-Jun-16 16:00N 40°38' W 074°08'0 0.0
2018-Jun-16 15:30N 40°39' W 074°08'1 2.1
2018-Jun-16 15:00N 40°39' W 074°09'2 3.3
2018-Jun-16 14:29N 40°41' W 074°09'1 1.2
2018-Jun-16 13:57N 40°41' W 074°09'0 0.1
2018-Jun-16 13:30N 40°41' W 074°09'0 0.0
2018-Jun-16 13:00N 40°41' W 074°09'3 4.6
2018-Jun-16 12:27N 40°39' W 074°09'3 7.9
2018-Jun-16 12:00N 40°40' W 074°05'0 0.4
2018-Jun-16 11:30N 40°40' W 074°05'2 3.6
2018-Jun-16 11:00N 40°39' W 074°03'3 5.3
2018-Jun-16 10:31N 40°36' W 074°03'2 3.7
2018-Jun-16 10:00N 40°38' W 074°04'0 0.0
2018-Jun-16 09:30N 40°38' W 074°04'0 0.0
2018-Jun-16 09:00N 40°38' W 074°04'2 3.4
2018-Jun-16 08:30N 40°39' W 074°05'0 0.1
2018-Jun-16 08:00N 40°39' W 074°05'0 0.9
2018-Jun-16 07:30N 40°39' W 074°05'2 3.1
2018-Jun-16 07:00N 40°38' W 074°03'2 3.8
2018-Jun-16 06:30N 40°39' W 074°05'1 0.8
2018-Jun-16 05:38N 40°39' W 074°06'1 1.5
2018-Jun-16 04:46N 40°38' W 074°08'0 1.0
2018-Jun-16 04:28N 40°39' W 074°07'1 3.2
2018-Jun-16 04:00N 40°40' W 074°08'1 1.7
2018-Jun-16 03:30N 40°41' W 074°09'0 0.7
2018-Jun-16 03:00N 40°41' W 074°09'0 0.3
2018-Jun-16 02:23N 40°41' W 074°09'0 0.0
2018-Jun-16 01:56N 40°41' W 074°09'3 6.1
2018-Jun-16 01:30N 40°39' W 074°09'1 1.3
2018-Jun-16 00:56N 40°38' W 074°08'0 0.0
2018-Jun-16 00:27N 40°38' W 074°08'0 0.0
2018-Jun-15 23:59N 40°38' W 074°08'0 0.0
2018-Jun-15 23:00N 40°39' W 074°08'1 1.6
2018-Jun-15 22:18N 40°39' W 074°09'1 1.5
2018-Jun-15 21:52N 40°40' W 074°09'0 0.0
2018-Jun-15 21:06N 40°40' W 074°09'0 0.1
2018-Jun-15 20:59N 40°40' W 074°09'  

Dump ship's entire track history